createdAt,value
2023-03-13T00:00:56.999Z,93505.13
2023-03-13T00:03:23.457Z,93468.81
2023-03-13T00:05:49.885Z,93469.56
2023-03-13T00:08:22.514Z,93500.56
2023-03-13T00:10:48.892Z,93458.09
2023-03-13T00:13:15.300Z,93450.75
2023-03-13T00:15:41.707Z,93482.59
2023-03-13T00:18:08.161Z,93490.28
2023-03-13T00:20:34.544Z,93422.41
2023-03-13T00:23:00.942Z,93472.41
2023-03-13T00:25:27.498Z,93407.59
2023-03-13T00:27:53.891Z,93429.50
2023-03-13T00:30:20.310Z,93411.25
2023-03-13T00:32:47.148Z,93467.94
2023-03-13T00:35:14.631Z,93469.81
2023-03-13T00:37:41.432Z,93430.75
2023-03-13T00:40:08.965Z,93457.63
2023-03-13T00:42:35.791Z,93422.06
2023-03-13T00:45:02.571Z,93386.66
2023-03-13T00:47:28.964Z,93399.53
2023-03-13T00:49:55.370Z,93408.22
2023-03-13T00:52:21.771Z,93368.91
2023-03-13T00:54:48.147Z,93409.00
2023-03-13T00:57:14.531Z,93440.69
2023-03-13T00:59:40.969Z,93416.34
2023-03-13T01:02:07.521Z,93424.44
2023-03-13T01:04:33.988Z,93411.72
2023-03-13T01:07:00.399Z,93414.13
2023-03-13T01:09:26.775Z,93394.50
2023-03-13T01:11:53.200Z,93407.94
2023-03-13T01:14:20.446Z,93440.28
2023-03-13T01:16:47.179Z,93430.25
2023-03-13T01:19:15.480Z,93388.91
2023-03-13T01:21:44.637Z,93414.44
2023-03-13T01:24:11.861Z,93386.94
2023-03-13T01:26:38.820Z,93356.88
2023-03-13T01:29:05.334Z,93411.03
2023-03-13T01:31:33.850Z,93375.31
2023-03-13T01:34:03.047Z,93412.63
2023-03-13T01:36:29.602Z,93351.88
2023-03-13T01:38:58.593Z,93400.59
2023-03-13T01:41:25.941Z,93340.41
2023-03-13T01:43:52.416Z,93398.59
2023-03-13T01:46:25.028Z,93416.25
2023-03-13T01:49:03.518Z,93425.84
2023-03-13T01:51:35.018Z,93346.03
2023-03-13T01:54:07.774Z,93432.69
2023-03-13T01:57:03.753Z,93425.47
2023-03-13T01:59:40.760Z,93373.16
2023-03-13T02:02:08.033Z,93399.00
2023-03-13T02:04:47.074Z,93381.53
2023-03-13T02:07:22.224Z,93423.44
2023-03-13T02:09:52.556Z,93392.38
2023-03-13T02:12:26.941Z,93387.75
2023-03-13T02:14:54.770Z,93383.38
2023-03-13T02:17:21.234Z,93389.19
2023-03-13T02:19:51.949Z,93390.59
2023-03-13T02:22:36.576Z,93418.25
2023-03-13T02:25:24.380Z,93411.03
2023-03-13T02:27:58.648Z,93426.88
2023-03-13T02:30:25.556Z,93418.66
2023-03-13T02:32:52.115Z,93413.66
2023-03-13T02:35:21.168Z,93421.28
2023-03-13T02:37:58.876Z,93330.06
2023-03-13T02:40:30.309Z,93364.13
2023-03-13T02:43:02.845Z,93396.59
2023-03-13T02:45:29.250Z,93383.38
2023-03-13T02:47:55.626Z,93405.03
2023-03-13T02:50:23.452Z,93350.09
2023-03-13T02:52:55.473Z,93367.72
2023-03-13T02:55:29.712Z,93369.72
2023-03-13T02:57:56.194Z,93351.28
2023-03-13T03:00:26.701Z,93366.53
2023-03-13T03:02:54.261Z,93352.91
2023-03-13T03:05:22.143Z,93378.97
2023-03-13T03:07:49.556Z,93353.09
2023-03-13T03:10:16.966Z,93391.78
2023-03-13T03:12:43.345Z,93387.00
2023-03-13T03:15:10.267Z,93407.84
2023-03-13T03:17:36.994Z,93368.94
2023-03-13T03:20:07.808Z,93372.34
2023-03-13T03:22:34.699Z,93342.47
2023-03-13T03:25:01.190Z,93350.09
2023-03-13T03:27:27.568Z,93361.50
2023-03-13T03:29:53.932Z,93334.06
2023-03-13T03:32:21.110Z,93387.38
2023-03-13T03:34:47.515Z,93352.50
2023-03-13T03:37:13.889Z,93353.47
2023-03-13T03:40:02.430Z,93380.88
2023-03-13T03:42:28.790Z,93360.88
2023-03-13T03:44:55.212Z,93350.44
2023-03-13T03:47:21.597Z,93329.59
2023-03-13T03:49:48.011Z,93340.03
2023-03-13T03:52:14.385Z,93306.34
2023-03-13T03:54:40.928Z,93366.50
2023-03-13T03:57:08.448Z,93301.22
2023-03-13T03:59:34.832Z,93325.22
2023-03-13T04:02:01.304Z,93317.59
2023-03-13T04:04:27.917Z,93335.19
2023-03-13T04:06:54.316Z,93300.34
2023-03-13T04:09:25.955Z,93325.16
2023-03-13T04:11:52.344Z,93299.16
2023-03-13T04:14:18.720Z,93282.13
2023-03-13T04:16:45.145Z,93301.53
2023-03-13T04:19:11.608Z,93287.34
2023-03-13T04:21:39.597Z,93302.34
2023-03-13T04:24:06.288Z,93307.97
2023-03-13T04:26:32.693Z,93295.56
2023-03-13T04:28:59.069Z,93286.78
2023-03-13T04:31:25.504Z,93313.63
2023-03-13T04:33:52.190Z,93318.44
2023-03-13T04:36:18.637Z,93275.19
2023-03-13T04:38:46.061Z,93317.81
2023-03-13T04:41:12.441Z,93334.03
2023-03-13T04:43:38.834Z,93270.34
2023-03-13T04:46:05.252Z,93272.34
2023-03-13T04:48:31.640Z,93310.84
2023-03-13T04:50:58.010Z,93288.00
2023-03-13T04:53:24.422Z,93297.97
2023-03-13T04:55:56.932Z,93269.91
2023-03-13T04:58:23.321Z,93280.72
2023-03-13T05:00:54.989Z,93307.59
2023-03-13T05:03:37.752Z,93293.13
2023-03-13T05:06:23.440Z,93319.97
2023-03-13T05:08:49.816Z,93279.91
2023-03-13T05:11:16.206Z,93256.69
2023-03-13T05:13:43.578Z,93276.34
2023-03-13T05:16:10.135Z,93261.91
2023-03-13T05:18:36.515Z,93284.34
2023-03-13T05:21:19.549Z,93270.72
2023-03-13T05:23:46.051Z,93285.53
2023-03-13T05:26:13.548Z,93277.34
2023-03-13T05:28:39.932Z,93302.78
2023-03-13T05:31:07.360Z,93281.13
2023-03-13T05:33:33.873Z,93257.09
2023-03-13T06:05:34.350Z,93298.75
2023-03-13T06:08:01.298Z,93276.34
2023-03-13T06:10:28.075Z,93291.31
2023-03-13T06:12:55.868Z,93304.41
2023-03-13T06:15:23.006Z,93309.97
2023-03-13T06:17:49.504Z,93265.53
2023-03-13T06:20:15.960Z,93272.13
2023-03-13T06:22:42.663Z,93256.72
2023-03-13T06:25:09.376Z,93252.09
2023-03-13T06:27:35.777Z,93272.72
2023-03-13T06:30:02.948Z,93296.16
2023-03-13T06:32:29.496Z,93287.94
2023-03-13T06:34:55.958Z,93291.16
2023-03-13T06:37:22.353Z,93294.78
2023-03-13T06:39:48.719Z,93279.56
2023-03-13T06:42:15.087Z,93258.34
2023-03-13T06:44:41.854Z,93260.16
2023-03-13T06:47:08.325Z,93238.72
2023-03-13T06:49:34.761Z,93253.94
2023-03-13T06:52:01.260Z,93258.72
2023-03-13T06:54:27.926Z,93279.38
2023-03-13T06:56:54.422Z,93283.97
2023-03-13T06:59:20.793Z,93268.56
2023-03-13T07:01:47.235Z,93280.38
2023-03-13T07:04:14.042Z,93288.78
2023-03-13T07:06:40.547Z,93265.94
2023-03-13T07:09:07.009Z,93275.97
2023-03-13T07:11:33.507Z,93251.72
2023-03-13T07:14:15.372Z,93267.13
2023-03-13T07:16:43.692Z,93188.47
2023-03-13T07:19:10.212Z,93278.75
2023-03-13T07:21:36.646Z,93277.75
2023-03-13T07:24:03.227Z,93224.69
2023-03-13T07:26:48.573Z,93250.75
2023-03-13T07:29:20.824Z,93266.75
2023-03-13T07:31:47.255Z,93238.31
2023-03-13T07:34:13.703Z,93221.47
2023-03-13T07:36:41.592Z,93236.28
2023-03-13T07:39:08.466Z,93247.91
2023-03-13T07:41:34.933Z,93233.06
2023-03-13T07:44:01.317Z,93257.91
2023-03-13T07:46:27.924Z,93231.88
2023-03-13T07:48:55.194Z,93239.84
2023-03-13T07:51:36.789Z,93227.44
2023-03-13T07:54:07.141Z,93232.28
2023-03-13T07:56:33.557Z,93240.31
2023-03-13T07:58:59.948Z,93256.94
2023-03-13T08:01:30.306Z,93265.50
2023-03-13T08:03:58.547Z,93281.53
2023-03-13T08:06:26.445Z,93249.88
2023-03-13T08:08:53.703Z,93251.00
2023-03-13T08:11:24.313Z,93246.13
2023-03-13T08:13:51.186Z,93218.50
2023-03-13T08:16:19.694Z,93256.38
2023-03-13T08:18:49.077Z,93257.00
2023-03-13T08:21:23.344Z,93232.97
2023-03-13T08:23:53.585Z,93220.03
2023-03-13T08:26:22.078Z,93213.00
2023-03-13T08:28:53.097Z,93228.84
2023-03-13T08:31:24.992Z,93232.22
2023-03-13T08:33:56.375Z,93154.16
2023-03-13T08:36:25.051Z,93231.94
2023-03-13T08:38:57.879Z,93250.59
2023-03-13T08:41:26.397Z,93238.66
2023-03-13T08:43:53.278Z,93246.50
2023-03-13T08:46:20.084Z,93223.78
2023-03-13T08:48:54.371Z,93252.91
2023-03-13T08:51:23.625Z,93246.34
2023-03-13T08:53:51.215Z,93198.13
2023-03-13T08:56:20.549Z,93241.50
2023-03-13T08:59:01.184Z,93236.59
2023-03-13T09:01:30.364Z,93230.78
2023-03-13T09:03:57.850Z,93213.75
2023-03-13T09:06:24.443Z,93230.25
2023-03-13T09:08:50.886Z,93201.88
2023-03-13T09:11:20.396Z,93224.78
2023-03-13T09:13:49.268Z,93210.84
2023-03-13T09:16:21.401Z,93218.38
2023-03-13T09:18:49.147Z,93215.75
2023-03-13T09:21:23.884Z,93196.28
2023-03-13T09:23:51.261Z,93220.56
2023-03-13T09:26:21.006Z,93211.84
2023-03-13T09:28:49.367Z,93176.31
2023-03-13T09:31:34.411Z,93205.09
2023-03-13T09:34:01.158Z,93219.19
2023-03-13T09:36:28.464Z,93206.72
2023-03-13T09:38:57.454Z,93217.16
2023-03-13T09:41:40.635Z,93195.63
2023-03-13T09:44:29.121Z,93218.59
2023-03-13T09:46:58.504Z,93219.22
2023-03-13T09:49:44.064Z,93203.63
2023-03-13T09:52:31.469Z,93195.81
2023-03-13T09:55:06.174Z,93189.91
2023-03-13T09:57:35.955Z,93180.66
2023-03-13T10:00:12.765Z,93164.50
2023-03-13T10:02:40.281Z,93190.41
2023-03-13T10:05:06.587Z,93167.75
2023-03-13T10:07:32.997Z,93152.16
2023-03-13T10:10:01.401Z,93144.97
2023-03-13T10:12:32.681Z,93166.28
2023-03-13T10:15:20.411Z,93165.84
2023-03-13T10:17:46.939Z,93155.63
2023-03-13T10:20:28.194Z,93154.78
2023-03-13T10:23:00.527Z,93131.03
2023-03-13T10:25:32.180Z,93157.06
2023-03-13T10:27:58.938Z,93151.75
2023-03-13T10:30:31.724Z,93132.28
2023-03-13T10:33:22.079Z,93133.25
2023-03-13T10:36:00.440Z,93141.88
2023-03-13T10:38:26.855Z,93145.09
2023-03-13T10:41:18.846Z,93150.00
2023-03-13T10:43:54.351Z,93149.66
2023-03-13T10:46:29.442Z,93090.69
2023-03-13T10:49:01.658Z,93133.00
2023-03-13T10:51:40.420Z,93155.22
2023-03-13T10:54:21.970Z,93152.47
2023-03-13T10:56:49.762Z,93110.25
2023-03-13T10:59:24.900Z,93103.44
2023-03-13T11:01:52.988Z,93119.63
2023-03-13T11:04:34.809Z,93117.28
2023-03-13T11:07:04.469Z,93140.16
2023-03-13T11:09:32.229Z,93138.53
2023-03-13T11:12:24.106Z,93145.59
2023-03-13T11:14:57.805Z,93100.97
2023-03-13T11:17:29.477Z,93121.38
2023-03-13T11:20:05.794Z,93090.25
2023-03-13T11:22:45.891Z,93109.78
2023-03-13T11:25:20.699Z,93106.66
2023-03-13T11:28:21.115Z,93093.50
2023-03-13T11:31:02.973Z,93084.69
2023-03-13T11:33:38.710Z,93077.81
2023-03-13T11:36:18.800Z,93064.69
2023-03-13T11:39:11.988Z,93057.59
2023-03-13T11:42:03.007Z,93076.31
2023-03-13T11:44:51.816Z,93065.75
2023-03-13T11:47:42.506Z,93056.66
2023-03-13T11:50:19.621Z,93057.44
2023-03-13T11:53:22.796Z,93053.56
2023-03-13T11:56:06.421Z,93055.03
2023-03-13T11:58:35.745Z,93055.94
2023-03-13T12:01:31.578Z,93049.16
2023-03-13T12:04:15.654Z,92993.00
2023-03-13T12:06:49.844Z,92996.41
2023-03-13T12:09:20.325Z,93009.81
2023-03-13T12:12:04.586Z,92982.94
2023-03-13T12:14:49.395Z,92999.56
2023-03-13T12:17:39.155Z,92992.03
2023-03-13T12:20:26.615Z,92962.94
2023-03-13T12:23:08.139Z,92982.56
2023-03-13T12:26:01.192Z,92981.53
2023-03-13T12:28:45.618Z,92977.28
2023-03-13T12:31:30.968Z,92982.56
2023-03-13T12:34:15.010Z,92962.53
2023-03-13T12:36:55.694Z,92959.84
2023-03-13T12:39:24.796Z,92952.97
2023-03-13T12:42:31.370Z,92962.47
2023-03-13T12:44:59.293Z,92952.47
2023-03-13T12:47:34.326Z,92940.81
2023-03-13T12:50:36.640Z,92939.28
2023-03-13T12:53:20.436Z,92935.53
2023-03-13T12:56:21.896Z,92925.53
2023-03-13T12:59:15.430Z,92925.53
2023-03-13T13:01:51.079Z,92892.47
2023-03-13T13:04:23.771Z,92914.06
2023-03-13T13:06:55.918Z,92911.69
2023-03-13T13:09:30.781Z,92887.97
2023-03-13T13:12:22.368Z,92903.28
2023-03-13T13:14:50.087Z,92896.25
2023-03-13T13:17:20.688Z,92875.66
2023-03-13T13:19:47.874Z,92879.78
2023-03-13T13:22:37.408Z,92862.78
2023-03-13T13:25:17.919Z,92871.59
2023-03-13T13:27:44.357Z,92860.81
2023-03-13T13:30:19.582Z,92845.06
2023-03-13T13:32:55.478Z,92836.41
2023-03-13T13:35:30.828Z,92823.78
2023-03-13T13:38:19.046Z,92828.34
2023-03-13T13:40:58.901Z,92813.28
2023-03-13T13:43:25.570Z,92809.31
2023-03-13T13:46:07.222Z,92789.84
2023-03-13T13:48:43.569Z,92803.38
2023-03-13T13:51:23.933Z,92798.94
2023-03-13T13:53:56.869Z,92799.00
2023-03-13T13:56:32.507Z,92782.16
2023-03-13T13:59:05.413Z,92786.31
2023-03-13T14:01:33.917Z,92759.44
2023-03-13T14:04:27.862Z,92755.72
2023-03-13T14:06:59.145Z,92740.03
2023-03-13T14:09:41.774Z,92722.69
2023-03-13T14:12:36.171Z,92748.72
2023-03-13T14:15:17.484Z,92744.56
2023-03-13T14:17:55.099Z,92722.47
2023-03-13T14:20:31.387Z,92719.75
2023-03-13T14:23:02.345Z,92715.56
2023-03-13T14:25:42.776Z,92695.38
2023-03-13T14:28:23.527Z,92716.91
2023-03-13T14:30:53.108Z,92712.44
2023-03-13T14:33:21.063Z,92691.53
2023-03-13T14:35:50.334Z,92704.13
2023-03-13T14:38:25.985Z,92684.16
2023-03-13T14:40:55.399Z,92660.47
2023-03-13T14:43:33.722Z,92688.72
2023-03-13T14:46:14.258Z,92663.84
2023-03-13T14:48:42.106Z,92670.22
2023-03-13T14:51:16.069Z,92654.53
2023-03-13T14:54:01.182Z,92657.13
2023-03-13T14:56:34.927Z,92634.31
2023-03-13T14:59:09.038Z,92653.94
2023-03-13T15:01:35.485Z,92633.31
2023-03-13T15:04:01.915Z,92624.22
2023-03-13T15:06:28.925Z,92610.09
2023-03-13T15:09:17.586Z,92626.72
2023-03-13T15:12:05.727Z,92621.28
2023-03-13T15:14:38.024Z,92618.00
2023-03-13T15:17:21.398Z,92607.81
2023-03-13T15:19:54.106Z,92582.72
2023-03-13T15:22:27.229Z,92598.13
2023-03-13T15:25:05.674Z,92557.59
2023-03-13T15:27:34.103Z,92551.53
2023-03-13T15:30:00.725Z,92535.22
2023-03-13T15:32:37.343Z,92565.22
2023-03-13T15:35:23.151Z,92516.91
2023-03-13T15:37:50.673Z,92507.94
2023-03-13T15:40:17.690Z,92535.28
2023-03-13T15:42:44.180Z,92487.25
2023-03-13T15:45:12.009Z,92525.13
2023-03-13T15:47:38.430Z,92495.25
2023-03-13T15:50:06.911Z,92523.84
2023-03-13T15:52:36.517Z,92517.81
2023-03-13T15:55:07.240Z,92469.00
2023-03-13T15:57:42.389Z,92519.19
2023-03-13T16:00:34.766Z,92513.44
2023-03-13T16:03:01.290Z,92499.06
2023-03-13T16:05:28.999Z,92483.16
2023-03-13T16:07:56.467Z,92480.75
2023-03-13T16:10:27.290Z,92474.72
2023-03-13T16:12:57.869Z,92491.41
2023-03-13T16:15:24.573Z,92485.59
2023-03-13T16:17:50.969Z,92474.81
2023-03-13T16:20:20.888Z,92481.31
2023-03-13T16:22:50.661Z,92481.31
2023-03-13T16:25:18.801Z,92446.91
2023-03-13T16:27:46.237Z,92461.38
2023-03-13T16:30:26.897Z,92457.06
2023-03-13T16:32:53.616Z,92428.50
2023-03-13T16:35:21.740Z,92433.56
2023-03-13T16:37:57.724Z,92441.88
2023-03-13T16:40:33.007Z,92417.25
2023-03-13T16:43:00.423Z,92434.38
2023-03-13T16:45:27.601Z,92438.47
2023-03-13T16:47:54.257Z,92419.25
2023-03-13T16:50:23.376Z,92427.56
2023-03-13T16:53:07.161Z,92396.84
2023-03-13T16:55:38.634Z,92375.03
2023-03-13T16:58:05.537Z,92402.41
2023-03-13T17:00:32.650Z,92407.38
2023-03-13T17:02:59.702Z,92393.97
2023-03-13T17:05:27.691Z,92380.25
2023-03-13T17:08:01.233Z,92379.63
2023-03-13T17:10:31.832Z,92384.34
2023-03-13T17:13:05.448Z,92368.44
2023-03-13T17:15:32.039Z,92359.41
2023-03-13T17:18:04.718Z,92369.88
2023-03-13T17:20:31.171Z,92364.63
2023-03-13T17:23:01.226Z,92375.72
2023-03-13T17:25:31.328Z,92339.34
2023-03-13T17:27:57.748Z,92314.88
2023-03-13T17:30:28.318Z,92341.63
2023-03-13T17:32:54.823Z,92314.06
2023-03-13T17:35:22.221Z,92360.31
2023-03-13T17:37:49.429Z,92327.00
2023-03-13T17:40:20.999Z,92337.34
2023-03-13T17:42:52.664Z,92353.75
2023-03-13T17:45:19.523Z,92341.19
2023-03-13T17:47:46.969Z,92358.56
2023-03-13T17:50:24.131Z,92336.78
2023-03-13T17:52:50.510Z,92319.22
2023-03-13T17:55:18.316Z,92332.38
2023-03-13T17:57:49.480Z,92347.88
2023-03-13T18:00:24.018Z,92350.75
2023-03-13T18:02:50.595Z,92324.56
2023-03-13T18:05:17.523Z,92292.31
2023-03-13T18:07:44.390Z,92329.78
2023-03-13T18:10:19.441Z,92281.34
2023-03-13T18:12:56.033Z,92282.69
2023-03-13T18:15:25.132Z,92305.59
2023-03-13T18:17:52.116Z,92304.03
2023-03-13T18:20:25.005Z,92310.34
2023-03-13T18:22:51.623Z,92284.50
2023-03-13T18:25:18.181Z,92270.88
2023-03-13T18:27:44.628Z,92276.75
2023-03-13T18:30:20.788Z,92281.78
2023-03-13T18:32:47.833Z,92242.38
2023-03-13T18:35:15.734Z,92269.31
2023-03-13T18:37:46.984Z,92260.50
2023-03-13T18:40:23.133Z,92260.84
2023-03-13T18:42:50.149Z,92214.75
2023-03-13T18:45:19.637Z,92242.38
2023-03-13T18:47:48.036Z,92236.69
2023-03-13T18:50:29.838Z,92211.09
2023-03-13T18:52:58.604Z,92184.19
2023-03-13T18:55:26.890Z,92186.22
2023-03-13T18:57:56.489Z,92140.31
2023-03-13T19:00:28.943Z,92208.13
2023-03-13T19:02:55.600Z,92183.06
2023-03-13T19:05:22.591Z,92198.09
2023-03-13T19:07:49.043Z,92182.03
2023-03-13T19:10:24.122Z,92172.78
2023-03-13T19:12:50.837Z,92173.34
2023-03-13T19:23:09.590Z,92150.69
2023-03-13T19:25:35.999Z,92151.94
2023-03-13T19:28:02.539Z,92156.56
2023-03-13T19:30:38.045Z,91999.78
2023-03-13T19:33:04.544Z,91967.59
2023-03-13T19:35:31.136Z,92164.34
2023-03-13T19:37:57.613Z,91983.66
2023-03-13T19:40:28.639Z,92198.97
2023-03-13T19:42:55.112Z,92188.88
2023-03-13T19:45:29.345Z,92156.25
2023-03-13T19:47:55.820Z,92075.00
2023-03-13T19:50:27.506Z,92196.84
2023-03-13T19:52:54.035Z,92077.16
2023-03-13T19:55:21.548Z,92188.31
2023-03-13T19:58:06.654Z,92249.22
2023-03-13T20:00:33.268Z,92252.69
2023-03-13T20:03:15.647Z,91803.16
2023-03-13T20:05:44.482Z,92213.16
2023-03-13T20:08:10.971Z,92192.81
2023-03-13T20:23:40.594Z,92194.38
2023-03-13T20:26:09.909Z,92179.91
2023-03-13T20:28:37.624Z,92194.91
2023-03-13T20:31:04.753Z,92193.59
2023-03-13T20:33:31.324Z,92202.56
2023-03-13T20:36:00.366Z,92186.28
2023-03-13T20:38:27.233Z,92183.63
2023-03-13T20:40:55.239Z,92218.94
2023-03-13T20:43:22.442Z,92206.53
2023-03-13T20:45:49.217Z,92200.16
2023-03-13T20:48:16.440Z,92219.13
2023-03-13T20:50:43.268Z,92236.94
2023-03-13T20:53:11.124Z,92245.56
2023-03-13T20:55:38.482Z,92223.53
2023-03-13T20:58:21.540Z,92239.13
2023-03-13T21:00:48.497Z,92268.69
2023-03-13T21:03:17.208Z,92268.25
2023-03-13T21:05:45.675Z,92238.72
2023-03-13T21:08:12.060Z,92239.69
2023-03-13T21:10:39.922Z,92266.97
2023-03-13T21:13:09.012Z,92271.81
2023-03-13T21:15:35.754Z,92257.09
2023-03-13T21:18:02.543Z,92268.41
2023-03-13T21:20:30.554Z,92331.50
2023-03-13T21:22:57.071Z,92316.03
2023-03-13T21:25:23.871Z,92326.00
2023-03-13T21:27:50.611Z,92335.22
2023-03-13T21:30:20.571Z,92333.38
2023-03-13T21:32:47.862Z,92301.81
2023-03-13T21:35:15.075Z,92385.13
2023-03-13T21:37:51.372Z,92369.31
2023-03-13T21:40:18.182Z,92344.59
2023-03-13T21:42:50.857Z,92385.66
2023-03-13T21:45:17.281Z,92407.50
2023-03-13T21:47:43.632Z,92402.75
2023-03-13T21:50:10.970Z,92445.16
2023-03-13T21:52:40.862Z,92429.03
2023-03-13T21:55:10.919Z,92477.53
2023-03-13T21:57:37.349Z,92479.06
2023-03-13T22:00:07.906Z,92481.03
2023-03-13T22:02:37.710Z,92498.97
2023-03-13T22:05:05.126Z,92500.09
2023-03-13T22:07:31.646Z,92471.44
2023-03-13T22:09:59.150Z,92479.22
2023-03-13T22:12:26.374Z,92503.44
2023-03-13T22:14:53.264Z,92496.28
2023-03-13T22:17:20.484Z,92451.22
2023-03-13T22:19:47.182Z,92510.81
2023-03-13T22:22:14.044Z,92534.66
2023-03-13T22:24:40.488Z,92457.53
2023-03-13T22:27:09.011Z,92509.06
2023-03-13T22:29:36.207Z,92512.44
2023-03-13T22:32:03.277Z,92526.97
2023-03-13T22:34:30.018Z,92535.06
2023-03-13T22:36:56.521Z,92512.50
2023-03-13T22:39:23.074Z,92487.06
2023-03-13T22:41:49.569Z,92503.00
2023-03-13T22:44:16.992Z,92493.00
2023-03-13T22:46:43.405Z,92479.38
2023-03-13T22:49:09.869Z,92424.44
2023-03-13T22:51:36.236Z,92443.66
2023-03-13T22:54:02.664Z,92420.16
2023-03-13T22:56:29.033Z,92414.94
2023-03-13T22:58:55.462Z,92406.97
2023-03-13T23:01:22.822Z,92414.94
2023-03-13T23:03:51.327Z,92409.72
2023-03-13T23:06:21.199Z,92450.03
2023-03-13T23:08:47.880Z,92457.81
2023-03-13T23:11:17.254Z,92427.78
2023-03-13T23:13:43.850Z,92459.47
2023-03-13T23:16:11.778Z,92432.03
2023-03-13T23:18:42.639Z,92444.72
2023-03-13T23:21:11.870Z,92486.91
2023-03-13T23:23:38.626Z,92467.34
2023-03-13T23:26:08.620Z,92473.47
2023-03-13T23:28:36.617Z,92441.56
2023-03-13T23:31:17.322Z,92479.16
2023-03-13T23:33:43.950Z,92463.88
2023-03-13T23:36:13.813Z,92465.41
2023-03-13T23:38:40.420Z,92453.41
2023-03-13T23:41:08.692Z,92448.88
2023-03-13T23:43:35.498Z,92455.94
2023-03-13T23:46:02.091Z,92451.28
2023-03-13T23:48:28.516Z,92449.47
2023-03-13T23:50:55.067Z,92478.97
2023-03-13T23:53:21.530Z,92444.25
2023-03-13T23:55:47.953Z,92476.47
2023-03-13T23:58:14.321Z,92479.38
